Time;durP1;ratioP1;P1;durP2;ratioP2;P2;SDS_P1;SDS_P2;PMS_P1;PMS_P2;Temp;Humidity;BMP_temperature;BMP_pressure;BME280_temperature;BME280_humidity;BME280_pressure;Samples;Min_cycle;Max_cycle;Signal;HPM_P1;HPM_P2
2023/10/18 00:02:46;;;;;;;4.95;2.10;;;6.50;99.90;;;;;;5023819;28;20057;-74
2023/10/18 00:05:12;;;;;;;4.03;1.60;;;6.50;99.90;;;;;;5023681;28;20062;-74
2023/10/18 00:07:39;;;;;;;2.58;2.35;;;6.50;99.90;;;;;;5034226;28;20051;-74
2023/10/18 00:10:05;;;;;;;3.50;2.30;;;6.40;99.90;;;;;;5043530;28;20654;-74
2023/10/18 00:12:34;;;;;;;3.00;2.25;;;6.50;99.90;;;;;;5042919;28;20056;-74
2023/10/18 00:14:59;;;;;;;2.60;1.88;;;6.40;99.90;;;;;;5042485;28;20118;-74
2023/10/18 00:17:26;;;;;;;3.35;2.63;;;6.40;99.90;;;;;;5044171;28;20576;-74
2023/10/18 00:19:52;;;;;;;6.65;2.53;;;6.40;99.90;;;;;;5044146;28;20116;-74
2023/10/18 00:22:18;;;;;;;1.98;1.60;;;6.40;99.90;;;;;;5042753;28;20057;-74
2023/10/18 00:24:43;;;;;;;3.63;2.40;;;6.40;99.90;;;;;;5033273;28;20053;-74
2023/10/18 00:27:09;;;;;;;3.67;2.75;;;6.40;99.90;;;;;;5035404;28;20068;-74
2023/10/18 00:29:36;;;;;;;2.55;2.35;;;6.40;99.90;;;;;;5062530;28;20033;-74
2023/10/18 00:32:03;;;;;;;6.57;3.78;;;6.40;99.90;;;;;;5053444;28;20430;-74
2023/10/18 00:34:29;;;;;;;1.80;1.58;;;6.30;99.90;;;;;;5051464;28;20045;-74
2023/10/18 00:36:55;;;;;;;3.00;2.08;;;6.30;99.90;;;;;;5057697;28;20041;-74
2023/10/18 00:39:27;;;;;;;2.72;2.58;;;6.30;99.90;;;;;;5038173;28;20071;-74
2023/10/18 00:41:54;;;;;;;4.82;2.65;;;6.30;99.90;;;;;;5023067;28;20041;-74
2023/10/18 00:44:21;;;;;;;5.18;2.22;;;6.30;99.90;;;;;;5037150;28;20056;-74
2023/10/18 00:46:52;;;;;;;4.10;3.65;;;6.30;99.90;;;;;;5025569;28;20048;-74
2023/10/18 00:49:20;;;;;;;5.70;2.95;;;6.30;99.90;;;;;;5023473;28;20045;-74
2023/10/18 00:51:47;;;;;;;5.63;2.97;;;6.30;99.90;;;;;;5040152;28;20052;-74
2023/10/18 00:54:14;;;;;;;6.13;2.95;;;6.30;99.90;;;;;;5042546;28;20049;-74
2023/10/18 00:56:44;;;;;;;4.70;2.58;;;6.30;99.90;;;;;;5043428;28;20044;-75
2023/10/18 00:59:26;;;;;;;6.10;3.22;;;6.30;99.90;;;;;;5043719;28;20039;-75
2023/10/18 01:01:58;;;;;;;4.78;2.92;;;6.20;99.90;;;;;;5043534;28;20053;-74
2023/10/18 01:04:25;;;;;;;4.00;2.88;;;6.30;99.90;;;;;;5041964;28;20076;-74
2023/10/18 01:06:50;;;;;;;4.38;3.03;;;6.20;99.90;;;;;;5041184;28;20051;-74
2023/10/18 01:09:17;;;;;;;5.55;3.35;;;6.20;99.90;;;;;;5021693;28;20408;-74
2023/10/18 01:11:46;;;;;;;4.75;2.95;;;6.20;99.90;;;;;;5021967;28;20053;-75
2023/10/18 01:14:16;;;;;;;2.95;2.67;;;6.20;99.90;;;;;;5039855;28;20064;-75
2023/10/18 01:16:44;;;;;;;7.30;4.32;;;6.20;99.90;;;;;;5022306;28;20045;-74
2023/10/18 01:19:11;;;;;;;3.90;3.42;;;6.20;99.90;;;;;;5024414;28;20103;-75
2023/10/18 01:21:36;;;;;;;4.45;2.92;;;6.20;99.90;;;;;;5023746;28;20050;-74
2023/10/18 01:24:04;;;;;;;4.57;2.65;;;6.20;99.90;;;;;;5023111;28;20211;-74
2023/10/18 01:26:36;;;;;;;9.15;3.92;;;6.20;99.90;;;;;;5022561;28;20041;-74
2023/10/18 01:29:03;;;;;;;8.10;3.95;;;6.20;99.90;;;;;;5032609;28;20045;-74
2023/10/18 01:31:29;;;;;;;5.97;3.22;;;6.20;99.90;;;;;;5042884;28;20106;-74
2023/10/18 01:33:55;;;;;;;6.15;4.00;;;6.20;99.90;;;;;;5058682;28;20041;-74
2023/10/18 01:36:22;;;;;;;4.28;3.63;;;6.20;99.90;;;;;;5041344;28;20064;-74
2023/10/18 01:38:49;;;;;;;4.40;3.97;;;6.20;99.90;;;;;;5034688;28;20041;-74
2023/10/18 01:41:37;;;;;;;7.35;4.05;;;6.20;99.90;;;;;;5034399;28;20049;-74
2023/10/18 01:44:07;;;;;;;4.93;4.18;;;6.10;99.90;;;;;;5062833;28;20611;-74
2023/10/18 01:46:43;;;;;;;5.72;3.90;;;6.10;99.90;;;;;;5050561;28;20080;-74
2023/10/18 01:49:13;;;;;;;7.63;2.83;;;6.10;99.90;;;;;;5025528;28;20048;-73
2023/10/18 01:51:42;;;;;;;5.78;4.22;;;6.10;99.90;;;;;;5022250;28;20408;-73
2023/10/18 01:54:15;;;;;;;10.38;4.65;;;6.10;99.90;;;;;;5037982;28;20065;-74
2023/10/18 01:56:42;;;;;;;5.97;4.50;;;6.10;99.90;;;;;;5021256;28;20041;-75
2023/10/18 01:59:08;;;;;;;6.15;3.45;;;6.10;99.90;;;;;;5024469;28;20037;-74
2023/10/18 02:01:34;;;;;;;6.90;4.90;;;6.00;99.90;;;;;;5053042;28;20090;-74
2023/10/18 02:04:00;;;;;;;6.90;4.13;;;6.00;99.90;;;;;;5034931;28;20400;-74
2023/10/18 02:06:27;;;;;;;6.25;5.30;;;6.00;99.90;;;;;;5005064;28;20052;-74
2023/10/18 02:08:53;;;;;;;5.45;4.20;;;6.00;99.90;;;;;;5041465;28;20045;-74
2023/10/18 02:11:19;;;;;;;6.53;3.95;;;6.00;99.90;;;;;;5036211;28;20399;-74
2023/10/18 02:13:44;;;;;;;10.85;5.00;;;6.00;99.90;;;;;;5040599;28;20059;-74
2023/10/18 02:16:15;;;;;;;8.48;5.97;;;6.00;99.90;;;;;;5040718;28;20041;-75
2023/10/18 02:18:41;;;;;;;10.50;6.53;;;6.00;99.90;;;;;;5025677;28;20046;-74
2023/10/18 02:21:07;;;;;;;8.13;6.05;;;6.00;99.90;;;;;;5021873;28;20061;-74
2023/10/18 02:23:36;;;;;;;7.95;5.50;;;6.00;99.90;;;;;;5027542;28;20091;-74
2023/10/18 02:26:09;;;;;;;6.05;5.20;;;6.00;99.90;;;;;;5022494;28;20104;-74
2023/10/18 02:28:36;;;;;;;7.57;5.45;;;6.00;99.90;;;;;;5022164;28;20041;-74
2023/10/18 02:33:38;;;;;;;9.23;5.40;;;6.00;99.90;;;;;;5022296;28;20100;-74
2023/10/18 02:36:31;;;;;;;6.25;4.95;;;6.00;99.90;;;;;;5021614;28;20443;-74
2023/10/18 02:38:57;;;;;;;7.15;6.32;;;6.00;99.90;;;;;;5039858;28;20462;-74
2023/10/18 02:41:29;;;;;;;7.53;4.90;;;6.00;99.90;;;;;;5023728;28;20080;-74
2023/10/18 02:43:57;;;;;;;7.78;4.32;;;6.00;99.90;;;;;;5021319;28;20191;-74
2023/10/18 02:46:24;;;;;;;7.63;6.97;;;6.00;99.90;;;;;;5037350;28;20049;-74
2023/10/18 02:48:53;;;;;;;7.88;4.80;;;6.00;99.90;;;;;;5055514;28;20044;-74
2023/10/18 02:51:22;;;;;;;6.55;5.65;;;6.00;99.90;;;;;;5023616;28;20045;-74
2023/10/18 02:53:51;;;;;;;7.85;5.70;;;6.00;99.90;;;;;;5039696;28;20060;-74
2023/10/18 02:56:17;;;;;;;11.35;5.90;;;6.00;99.90;;;;;;5039968;28;20877;-74
2023/10/18 02:58:46;;;;;;;9.90;5.03;;;6.00;99.90;;;;;;5042495;28;20556;-74
2023/10/18 03:01:14;;;;;;;6.88;5.22;;;6.00;99.90;;;;;;5064844;28;20123;-74
2023/10/18 03:03:40;;;;;;;9.35;5.63;;;6.00;99.90;;;;;;5052073;28;20403;-75
2023/10/18 03:06:12;;;;;;;9.55;5.22;;;6.00;99.90;;;;;;5046334;28;20535;-74
2023/10/18 03:08:41;;;;;;;8.95;6.22;;;6.00;99.90;;;;;;5030599;28;20559;-73
2023/10/18 03:11:11;;;;;;;9.60;5.85;;;6.00;99.90;;;;;;5026019;28;20068;-73
2023/10/18 03:13:37;;;;;;;9.20;6.18;;;6.00;99.90;;;;;;5036503;28;20095;-74
2023/10/18 03:16:15;;;;;;;9.52;7.97;;;6.00;99.90;;;;;;5008044;28;20171;-73
2023/10/18 03:18:43;;;;;;;11.02;5.50;;;6.00;99.90;;;;;;5007949;28;20042;-75
2023/10/18 03:21:09;;;;;;;7.18;4.97;;;6.00;99.90;;;;;;5027111;28;20541;-73
2023/10/18 03:23:44;;;;;;;11.73;5.65;;;6.00;99.90;;;;;;5037566;28;20049;-74
2023/10/18 03:26:11;;;;;;;9.27;6.13;;;6.00;99.90;;;;;;5024890;28;20066;-75
2023/10/18 03:28:40;;;;;;;14.75;6.32;;;5.90;99.90;;;;;;5032838;28;20036;-74
2023/10/18 03:31:21;;;;;;;7.65;4.95;;;5.90;99.90;;;;;;5033663;28;20120;-74
2023/10/18 03:33:52;;;;;;;6.20;4.57;;;5.90;99.90;;;;;;5026118;28;20053;-73
2023/10/18 03:36:22;;;;;;;8.32;4.75;;;5.90;99.90;;;;;;5041741;28;20076;-74
2023/10/18 03:38:54;;;;;;;7.05;5.82;;;5.90;99.90;;;;;;5027094;28;20393;-74
2023/10/18 03:41:25;;;;;;;12.13;6.75;;;5.90;99.90;;;;;;5026492;28;20092;-74
2023/10/18 03:43:58;;;;;;;6.78;5.07;;;5.80;99.90;;;;;;5045410;28;20049;-74
2023/10/18 03:46:38;;;;;;;6.22;3.80;;;5.80;99.90;;;;;;5043636;28;20049;-74
2023/10/18 03:49:08;;;;;;;6.03;5.28;;;5.80;99.90;;;;;;5045344;28;20056;-73
2023/10/18 03:51:34;;;;;;;8.55;5.43;;;5.80;99.90;;;;;;5033489;28;20128;-73
2023/10/18 03:54:00;;;;;;;9.27;5.57;;;5.80;99.90;;;;;;5060464;28;20174;-74
2023/10/18 03:56:26;;;;;;;11.75;8.45;;;5.80;99.90;;;;;;5047344;28;20049;-74
2023/10/18 03:59:00;;;;;;;7.65;6.32;;;5.80;99.90;;;;;;5024848;28;20052;-74
2023/10/18 04:01:39;;;;;;;8.00;6.35;;;5.80;99.90;;;;;;5040475;28;20136;-74
2023/10/18 04:04:06;;;;;;;11.77;6.90;;;5.80;99.90;;;;;;5025399;28;20044;-74
2023/10/18 04:06:35;;;;;;;10.20;5.35;;;5.80;99.90;;;;;;5031871;28;20044;-74
2023/10/18 04:09:13;;;;;;;9.88;5.95;;;5.70;99.90;;;;;;5032703;28;20044;-74
2023/10/18 04:11:39;;;;;;;10.90;5.63;;;5.70;99.90;;;;;;5023719;28;20134;-73
2023/10/18 04:14:05;;;;;;;5.88;4.57;;;5.70;99.90;;;;;;5039768;28;20048;-74
2023/10/18 04:16:30;;;;;;;6.63;4.72;;;5.70;99.90;;;;;;5033379;28;20049;-73
2023/10/18 04:18:57;;;;;;;10.82;5.70;;;5.70;99.90;;;;;;5042579;28;20130;-74
2023/10/18 04:21:26;;;;;;;7.65;6.43;;;5.70;99.90;;;;;;5024613;28;20041;-74
2023/10/18 04:23:56;;;;;;;6.43;5.78;;;5.70;99.90;;;;;;5043534;28;20045;-74
2023/10/18 04:26:25;;;;;;;7.30;5.05;;;5.70;99.90;;;;;;5044022;28;20095;-74
2023/10/18 04:28:55;;;;;;;10.75;6.25;;;5.70;99.90;;;;;;5040447;28;20391;-74
2023/10/18 04:31:21;;;;;;;8.20;7.00;;;5.70;99.90;;;;;;5040899;28;20068;-74
2023/10/18 04:33:50;;;;;;;7.35;5.63;;;5.70;99.90;;;;;;5026162;28;20049;-74
2023/10/18 04:36:20;;;;;;;10.65;5.40;;;5.70;99.90;;;;;;5037355;28;20051;-74
2023/10/18 04:38:46;;;;;;;9.48;5.70;;;5.70;99.90;;;;;;5022348;28;20062;-74
2023/10/18 04:44:38;;;;;;;6.70;5.32;;;5.70;99.90;;;;;;5022960;28;20057;-74
2023/10/18 04:46:52;;;;;;;5.18;4.78;;;5.70;99.90;;;;;;5027913;28;20139;-74
2023/10/18 04:49:36;;;;;;;8.40;5.03;;;5.70;99.90;;;;;;5037865;28;20540;-74
2023/10/18 04:52:04;;;;;;;7.28;5.85;;;5.70;99.90;;;;;;5023024;28;20042;-74
2023/10/18 04:54:38;;;;;;;6.13;5.53;;;5.70;99.90;;;;;;5034300;28;20083;-74
2023/10/18 04:57:12;;;;;;;9.25;6.03;;;5.70;99.90;;;;;;5032458;28;20528;-74
2023/10/18 04:59:52;;;;;;;10.43;7.78;;;5.70;99.90;;;;;;5023370;28;20045;-74
2023/10/18 05:02:18;;;;;;;11.27;7.45;;;5.70;99.90;;;;;;5041608;28;20033;-74
2023/10/18 05:04:46;;;;;;;10.27;6.88;;;5.70;99.90;;;;;;5034682;28;20403;-74
2023/10/18 05:12:07;;;;;;;9.43;8.10;;;5.70;99.90;;;;;;5030811;28;20191;-74
2023/10/18 05:17:26;;;;;;;8.68;6.38;;;5.70;99.90;;;;;;5022236;28;20083;-74
2023/10/18 05:19:55;;;;;;;9.20;5.95;;;5.70;99.90;;;;;;5026124;28;20076;-74
2023/10/18 05:22:25;;;;;;;7.72;5.80;;;5.70;99.90;;;;;;5046912;28;20095;-74
2023/10/18 05:27:45;;;;;;;7.13;5.65;;;5.70;99.90;;;;;;5029843;28;20059;-74
2023/10/18 05:30:15;;;;;;;14.27;7.22;;;5.70;99.90;;;;;;5027442;28;20491;-75
2023/10/18 05:33:02;;;;;;;9.13;7.32;;;5.80;99.90;;;;;;5036887;28;20040;-76
2023/10/18 05:35:33;;;;;;;6.60;5.20;;;5.80;99.90;;;;;;5034837;28;20044;-74
2023/10/18 05:38:39;;;;;;;7.30;6.28;;;5.80;99.90;;;;;;5026534;28;20033;-74
2023/10/18 05:40:56;;;;;;;8.00;7.30;;;5.80;99.90;;;;;;5032641;28;20060;-74
2023/10/18 05:43:22;;;;;;;7.22;5.72;;;5.80;99.90;;;;;;5038902;28;20055;-74
2023/10/18 05:45:49;;;;;;;8.45;7.53;;;5.90;99.90;;;;;;5030128;28;20124;-73
2023/10/18 05:48:22;;;;;;;9.15;6.25;;;5.90;99.90;;;;;;5029579;28;20045;-72
2023/10/18 05:51:26;;;;;;;8.55;7.13;;;5.90;99.90;;;;;;5042448;28;20044;-73
2023/10/18 05:53:59;;;;;;;9.00;6.45;;;5.90;99.90;;;;;;5028869;28;20045;-73
2023/10/18 05:56:34;;;;;;;10.02;8.07;;;5.90;99.90;;;;;;5038676;28;20529;-73
2023/10/18 06:01:58;;;;;;;8.05;6.15;;;5.80;99.90;;;;;;5031770;28;20092;-75
2023/10/18 06:04:25;;;;;;;14.57;7.40;;;5.80;99.90;;;;;;5033304;28;20041;-75
2023/10/18 06:06:52;;;;;;;18.88;7.63;;;5.90;99.90;;;;;;5033801;28;20057;-75
2023/10/18 06:12:09;;;;;;;8.93;7.63;;;5.90;99.90;;;;;;5035795;28;20148;-74
2023/10/18 06:14:40;;;;;;;7.53;5.78;;;5.80;99.90;;;;;;5038686;28;20566;-74
2023/10/18 06:17:12;;;;;;;12.25;6.53;;;5.80;99.90;;;;;;5037994;28;20052;-75
2023/10/18 06:19:45;;;;;;;14.82;8.63;;;5.80;99.90;;;;;;5023529;28;20036;-75
2023/10/18 06:22:28;;;;;;;12.38;6.95;;;5.80;99.90;;;;;;5039370;28;20080;-76
2023/10/18 06:24:57;;;;;;;7.55;6.32;;;5.80;99.90;;;;;;5028561;28;20655;-75
2023/10/18 06:27:23;;;;;;;5.90;5.32;;;5.80;99.90;;;;;;5002540;28;20091;-75
2023/10/18 06:29:54;;;;;;;8.18;6.28;;;5.80;99.90;;;;;;5019108;28;20069;-75
2023/10/18 06:32:25;;;;;;;9.00;6.60;;;5.80;99.90;;;;;;5018558;28;20661;-76
2023/10/18 06:34:56;;;;;;;7.97;5.47;;;5.90;99.90;;;;;;5019524;28;20392;-75
2023/10/18 06:37:44;;;;;;;10.82;5.32;;;5.90;99.90;;;;;;5020230;28;20048;-76
2023/10/18 06:40:40;;;;;;;11.18;5.90;;;5.90;99.90;;;;;;5019334;28;20037;-77
2023/10/18 06:43:06;;;;;;;8.25;6.65;;;5.90;99.90;;;;;;5019182;28;20052;-75
2023/10/18 06:45:36;;;;;;;10.77;6.63;;;5.90;99.90;;;;;;5020803;28;20119;-75
2023/10/18 06:48:03;;;;;;;11.93;6.43;;;5.90;99.90;;;;;;5018950;28;20486;-75
2023/10/18 06:50:29;;;;;;;8.38;6.55;;;5.90;99.90;;;;;;5019431;28;20127;-75
2023/10/18 06:52:56;;;;;;;19.33;7.60;;;5.90;99.90;;;;;;5019483;28;20352;-76
2023/10/18 06:55:35;;;;;;;10.10;7.78;;;5.90;99.90;;;;;;5019361;28;20308;-75
2023/10/18 06:58:14;;;;;;;8.85;5.90;;;5.90;99.90;;;;;;5020979;28;20042;-75
2023/10/18 07:00:46;;;;;;;11.48;7.60;;;5.90;99.90;;;;;;5018889;28;20483;-76
2023/10/18 07:03:18;;;;;;;8.50;5.95;;;5.90;99.90;;;;;;5019235;28;20057;-75
2023/10/18 07:05:50;;;;;;;8.68;6.65;;;6.00;99.90;;;;;;5020937;28;20098;-75
2023/10/18 07:08:19;;;;;;;12.05;8.48;;;6.00;99.90;;;;;;5033721;28;20071;-75
2023/10/18 07:10:56;;;;;;;11.60;6.68;;;6.00;99.90;;;;;;5039078;28;20064;-75
2023/10/18 07:13:38;;;;;;;11.38;6.00;;;6.00;99.90;;;;;;5038175;28;20496;-76
2023/10/18 07:16:06;;;;;;;;;;;6.00;99.90;;;;;;5039401;28;20049;-75
2023/10/18 07:18:35;;;;;;;9.35;6.13;;;6.10;99.90;;;;;;5040116;28;19924;-75
2023/10/18 07:21:05;;;;;;;10.90;6.85;;;6.10;99.90;;;;;;5038942;28;20045;-75
2023/10/18 07:23:37;;;;;;;8.45;6.30;;;6.20;99.90;;;;;;5037786;28;20087;-75
2023/10/18 07:26:04;;;;;;;9.20;6.22;;;6.20;99.90;;;;;;5038500;28;20633;-75
2023/10/18 07:28:29;;;;;;;10.95;6.63;;;6.20;99.90;;;;;;5039868;28;20124;-75
2023/10/18 07:30:55;;;;;;;10.18;6.47;;;6.20;99.90;;;;;;5040264;28;20128;-76
2023/10/18 07:33:24;;;;;;;10.18;6.68;;;6.30;99.90;;;;;;5039343;28;20045;-75
2023/10/18 07:35:52;;;;;;;9.57;5.93;;;6.30;99.90;;;;;;5039940;28;20336;-75
2023/10/18 07:38:25;;;;;;;7.93;4.72;;;6.30;99.90;;;;;;5039005;28;20049;-75
2023/10/18 07:41:01;;;;;;;9.68;5.47;;;6.30;99.90;;;;;;5038274;28;20045;-75
2023/10/18 07:43:26;;;;;;;16.45;5.70;;;6.40;99.90;;;;;;5042650;28;20037;-75
2023/10/18 07:45:53;;;;;;;8.45;6.07;;;6.40;99.90;;;;;;5042735;28;20396;-75
2023/10/18 07:48:19;;;;;;;10.23;6.22;;;6.50;99.90;;;;;;5042263;28;20098;-75
2023/10/18 07:50:49;;;;;;;9.15;5.97;;;6.50;99.90;;;;;;5044006;28;20049;-75
2023/10/18 07:53:16;;;;;;;8.85;5.07;;;6.50;99.90;;;;;;5040674;28;20076;-75
2023/10/18 07:55:41;;;;;;;10.63;5.63;;;6.60;99.90;;;;;;5042634;28;20123;-76
2023/10/18 07:58:32;;;;;;;8.75;5.95;;;6.60;99.90;;;;;;5042139;28;20467;-75
2023/10/18 08:03:27;;;;;;;8.55;5.85;;;6.70;99.90;;;;;;5042007;28;20057;-75
2023/10/18 08:05:55;;;;;;;7.57;5.70;;;6.70;99.90;;;;;;5041905;28;20095;-75
2023/10/18 08:08:24;;;;;;;7.60;5.80;;;6.70;99.90;;;;;;5042340;28;20041;-75
2023/10/18 08:10:54;;;;;;;5.22;3.78;;;6.80;99.90;;;;;;5041205;28;20049;-75
2023/10/18 08:13:28;;;;;;;11.63;5.38;;;6.80;99.90;;;;;;5042047;28;20079;-75
2023/10/18 08:16:01;;;;;;;6.10;5.47;;;6.80;99.90;;;;;;5043467;28;20111;-75
2023/10/18 08:18:42;;;;;;;9.38;6.25;;;6.90;99.90;;;;;;5041538;28;20041;-75
2023/10/18 08:21:25;;;;;;;6.60;4.65;;;6.90;99.90;;;;;;5042233;28;20075;-75
2023/10/18 08:23:57;;;;;;;6.32;5.50;;;6.90;99.90;;;;;;5040832;28;20052;-75
2023/10/18 08:26:26;;;;;;;8.05;6.93;;;7.00;99.90;;;;;;5041649;28;20356;-75
2023/10/18 08:28:53;;;;;;;6.35;5.43;;;7.00;99.90;;;;;;5041504;28;20052;-75
2023/10/18 08:31:32;;;;;;;5.93;5.22;;;7.00;99.90;;;;;;5041296;28;20051;-75
2023/10/18 08:33:59;;;;;;;10.73;6.05;;;7.10;99.90;;;;;;5040685;28;20140;-75
2023/10/18 08:36:30;;;;;;;13.65;5.43;;;7.10;99.90;;;;;;5041401;28;20045;-75
2023/10/18 08:38:57;;;;;;;8.25;5.55;;;7.10;99.90;;;;;;5042176;28;20403;-74
2023/10/18 08:41:31;;;;;;;9.52;4.97;;;7.20;99.90;;;;;;5040812;28;20052;-75
2023/10/18 08:44:18;;;;;;;6.72;4.47;;;7.20;99.90;;;;;;5042850;28;20116;-75
2023/10/18 08:49:23;;;;;;;8.73;4.20;;;7.20;99.90;;;;;;5041273;28;20051;-75
2023/10/18 08:51:56;;;;;;;10.43;4.68;;;7.30;99.90;;;;;;5041191;28;20470;-75
2023/10/18 08:54:24;;;;;;;5.57;3.72;;;7.30;99.90;;;;;;5040985;28;20041;-75
2023/10/18 08:56:51;;;;;;;6.15;4.05;;;7.30;99.90;;;;;;5042613;28;20471;-74
2023/10/18 08:59:18;;;;;;;9.00;4.47;;;7.40;99.90;;;;;;5040776;28;20076;-75
2023/10/18 09:02:02;;;;;;;5.25;4.75;;;7.40;99.90;;;;;;5040869;28;20513;-75
2023/10/18 09:04:31;;;;;;;10.80;4.43;;;7.40;99.90;;;;;;5042464;28;20049;-75
2023/10/18 09:07:00;;;;;;;8.98;6.40;;;7.50;99.90;;;;;;5023918;28;20094;-76
2023/10/18 09:09:34;;;;;;;9.07;4.53;;;7.50;99.90;;;;;;5042065;28;20059;-75
2023/10/18 09:12:05;;;;;;;9.20;5.63;;;7.50;99.90;;;;;;5042422;28;20598;-75
2023/10/18 09:14:33;;;;;;;8.07;6.53;;;7.60;99.90;;;;;;5041079;28;20079;-74
2023/10/18 09:17:02;;;;;;;7.47;4.18;;;7.60;99.90;;;;;;5041314;28;20768;-75
2023/10/18 09:19:27;;;;;;;10.48;4.65;;;7.70;99.90;;;;;;5040905;28;20045;-74
2023/10/18 09:22:01;;;;;;;8.52;4.47;;;7.70;99.90;;;;;;5041967;28;20052;-75
2023/10/18 09:24:30;;;;;;;7.05;5.10;;;7.70;99.90;;;;;;5039871;28;20344;-75
2023/10/18 09:27:00;;;;;;;6.47;4.82;;;7.80;99.90;;;;;;5040754;28;20081;-75
2023/10/18 09:29:26;;;;;;;7.65;4.40;;;7.80;99.90;;;;;;5041454;28;20095;-75
2023/10/18 09:32:32;;;;;;;7.13;5.03;;;7.90;99.90;;;;;;5040694;28;20051;-72
2023/10/18 09:34:42;;;;;;;7.15;4.32;;;7.90;99.90;;;;;;5021719;28;20051;-76
2023/10/18 09:37:11;;;;;;;7.60;5.32;;;7.90;99.90;;;;;;5020828;28;20120;-75
2023/10/18 09:39:37;;;;;;;6.63;4.60;;;8.00;99.90;;;;;;5022768;28;20041;-75
2023/10/18 09:42:05;;;;;;;5.53;3.50;;;8.00;99.90;;;;;;5021924;28;20065;-76
2023/10/18 09:44:30;;;;;;;9.02;4.95;;;8.00;99.90;;;;;;5021472;28;20053;-75
2023/10/18 09:46:59;;;;;;;7.75;4.05;;;8.10;99.90;;;;;;5031745;28;20037;-75
2023/10/18 09:49:28;;;;;;;8.40;3.88;;;8.10;99.90;;;;;;5026963;28;20049;-75
2023/10/18 09:51:54;;;;;;;8.27;4.97;;;8.20;99.90;;;;;;5029274;28;21032;-75
2023/10/18 09:54:22;;;;;;;12.15;5.80;;;8.20;99.90;;;;;;5023443;28;20124;-76
2023/10/18 09:56:52;;;;;;;6.20;4.18;;;8.30;99.90;;;;;;5030358;28;20155;-76
2023/10/18 09:59:26;;;;;;;4.32;3.50;;;8.30;99.90;;;;;;5034637;28;20041;-76
2023/10/18 10:01:57;;;;;;;9.18;4.78;;;8.40;99.90;;;;;;5021654;28;20157;-76
2023/10/18 10:04:23;;;;;;;7.38;3.97;;;8.40;99.90;;;;;;5041695;28;20047;-75
2023/10/18 10:07:27;;;;;;;7.93;3.53;;;8.50;99.90;;;;;;5038858;28;20156;-77
2023/10/18 10:09:46;;;;;;;5.00;3.27;;;8.50;99.90;;;;;;5039072;28;20049;-75
2023/10/18 10:12:16;;;;;;;6.93;3.35;;;8.60;99.90;;;;;;5019984;28;20060;-76
2023/10/18 10:14:42;;;;;;;6.90;4.18;;;8.60;99.90;;;;;;5022600;28;20075;-76
2023/10/18 10:17:20;;;;;;;10.75;3.83;;;8.60;99.90;;;;;;5040747;28;20045;-75
2023/10/18 10:19:53;;;;;;;8.73;4.47;;;8.60;99.90;;;;;;5014526;28;20052;-75
2023/10/18 10:22:26;;;;;;;8.27;3.55;;;8.60;99.90;;;;;;5037630;28;20048;-75
2023/10/18 10:25:02;;;;;;;8.38;4.20;;;8.70;99.90;;;;;;5033154;28;20037;-76
2023/10/18 10:30:19;;;;;;;8.02;3.97;;;8.80;99.90;;;;;;5020346;28;20061;-76
2023/10/18 10:32:58;;;;;;;9.00;5.45;;;8.80;99.90;;;;;;5020352;28;20076;-76
2023/10/18 10:35:25;;;;;;;10.23;4.93;;;8.90;99.90;;;;;;5030652;28;20041;-75
2023/10/18 10:38:19;;;;;;;7.55;3.10;;;8.90;99.90;;;;;;5040083;28;20048;-76
2023/10/18 10:41:04;;;;;;;7.82;3.65;;;8.90;99.90;;;;;;5039623;28;20036;-76
2023/10/18 10:44:06;;;;;;;8.88;3.25;;;9.00;99.90;;;;;;5039443;28;20057;-76
2023/10/18 10:46:37;;;;;;;7.10;4.05;;;9.00;99.90;;;;;;5040531;28;20047;-76
2023/10/18 10:49:43;;;;;;;5.80;3.33;;;9.10;99.90;;;;;;5040570;28;20037;-76
2023/10/18 10:52:09;;;;;;;9.25;4.35;;;9.10;99.90;;;;;;5024217;28;20099;-76
2023/10/18 10:54:37;;;;;;;5.57;3.40;;;9.10;99.90;;;;;;5039529;28;20514;-76
2023/10/18 10:57:08;;;;;;;4.90;3.35;;;9.20;99.90;;;;;;5038852;28;20593;-76
2023/10/18 10:59:41;;;;;;;13.90;3.88;;;9.20;99.90;;;;;;5038993;28;20051;-76
2023/10/18 11:02:07;;;;;;;8.45;4.05;;;9.30;99.90;;;;;;5039977;28;20070;-76
2023/10/18 11:04:46;;;;;;;6.30;3.35;;;9.30;99.90;;;;;;5040059;28;20033;-76
2023/10/18 11:07:13;;;;;;;5.85;3.63;;;9.30;99.90;;;;;;5037232;28;20124;-77
2023/10/18 11:09:42;;;;;;;6.00;4.20;;;9.30;99.90;;;;;;5039923;28;20083;-76
2023/10/18 11:12:13;;;;;;;5.47;3.85;;;9.30;99.90;;;;;;5039604;28;20053;-76
2023/10/18 11:14:42;;;;;;;4.70;4.25;;;9.40;99.90;;;;;;5022747;28;20052;-76
2023/10/18 11:17:17;;;;;;;7.00;3.30;;;9.40;99.90;;;;;;5040481;28;20044;-76
2023/10/18 11:19:44;;;;;;;5.18;4.15;;;9.50;99.90;;;;;;5043196;28;20103;-77
2023/10/18 11:22:19;;;;;;;7.25;4.25;;;9.50;99.90;;;;;;5025165;28;20070;-77
2023/10/18 11:24:49;;;;;;;7.40;3.92;;;9.50;99.90;;;;;;5043103;28;20041;-76
2023/10/18 11:27:25;;;;;;;6.25;3.67;;;9.50;99.90;;;;;;5044760;28;20041;-76
2023/10/18 11:29:56;;;;;;;5.90;3.33;;;9.60;99.90;;;;;;5043357;28;20083;-76
2023/10/18 11:32:28;;;;;;;6.28;3.88;;;9.60;99.90;;;;;;5042032;28;20041;-76
2023/10/18 11:35:08;;;;;;;7.10;3.13;;;9.70;99.90;;;;;;5043430;28;20265;-76
2023/10/18 11:37:38;;;;;;;5.85;3.40;;;9.70;99.90;;;;;;5042730;28;20079;-76
2023/10/18 11:40:29;;;;;;;7.05;4.30;;;9.70;99.90;;;;;;5043801;28;20045;-76
2023/10/18 11:42:55;;;;;;;4.10;3.03;;;9.80;99.90;;;;;;5042897;28;20124;-76
2023/10/18 11:45:22;;;;;;;9.75;4.85;;;9.80;99.90;;;;;;5044812;28;20040;-77
2023/10/18 11:47:50;;;;;;;6.35;3.97;;;9.80;99.90;;;;;;5047763;28;20045;-77
2023/10/18 11:50:26;;;;;;;7.80;3.53;;;9.90;99.90;;;;;;5033920;28;20034;-76
2023/10/18 11:52:52;;;;;;;7.55;3.80;;;9.90;99.90;;;;;;5050494;28;20041;-77
2023/10/18 11:55:20;;;;;;;5.18;3.10;;;9.90;99.90;;;;;;5045199;28;20080;-76
2023/10/18 11:57:48;;;;;;;5.53;3.42;;;9.90;99.90;;;;;;5042705;28;20144;-77
2023/10/18 12:00:35;;;;;;;8.13;4.45;;;9.90;99.90;;;;;;5059575;28;20085;-76
2023/10/18 12:03:03;;;;;;;8.43;4.47;;;10.00;99.90;;;;;;5043371;28;20098;-78
2023/10/18 12:05:29;;;;;;;9.80;4.95;;;10.00;99.90;;;;;;5038609;28;20225;-78
2023/10/18 12:08:01;;;;;;;6.55;3.85;;;10.00;99.90;;;;;;5042257;28;20087;-78
2023/10/18 12:10:34;;;;;;;;;;;10.00;99.90;;;;;;5025332;28;20068;-79
2023/10/18 12:13:02;;;;;;;;;;;10.00;99.90;;;;;;5044524;28;19925;-78
2023/10/18 12:15:30;;;;;;;5.55;3.92;;;10.10;99.90;;;;;;5035656;28;19971;-81
2023/10/18 12:17:56;;;;;;;7.50;3.45;;;10.10;99.90;;;;;;5037780;28;20044;-81
2023/10/18 12:20:34;;;;;;;10.13;3.90;;;10.10;99.90;;;;;;5042940;28;20424;-81
2023/10/18 12:23:21;;;;;;;5.85;3.45;;;10.10;99.90;;;;;;5042930;28;20052;-80
2023/10/18 12:25:48;;;;;;;6.63;3.95;;;10.20;99.90;;;;;;5035591;28;20083;-79
2023/10/18 12:28:27;;;;;;;5.50;3.83;;;10.20;99.90;;;;;;5039436;28;20367;-77
2023/10/18 12:30:55;;;;;;;5.80;3.60;;;10.20;99.90;;;;;;5039808;28;20037;-77
2023/10/18 12:33:26;;;;;;;10.32;3.83;;;10.20;99.90;;;;;;5042447;28;20674;-75
2023/10/18 12:35:56;;;;;;;6.35;3.72;;;10.30;99.90;;;;;;5043016;28;20475;-77
2023/10/18 12:38:43;;;;;;;5.45;3.75;;;10.20;99.90;;;;;;5042477;28;20112;-77
2023/10/18 12:41:18;;;;;;;6.75;3.42;;;10.30;99.90;;;;;;5034117;28;20134;-75
2023/10/18 12:43:44;;;;;;;9.00;3.83;;;10.30;99.90;;;;;;5041059;28;20069;-80
2023/10/18 12:46:16;;;;;;;5.88;3.50;;;10.30;99.90;;;;;;5037215;28;20110;-79
2023/10/18 12:48:43;;;;;;;4.68;3.13;;;10.40;99.90;;;;;;5025592;28;20051;-78
2023/10/18 12:51:12;;;;;;;6.93;3.50;;;10.40;99.90;;;;;;5040404;28;20052;-78
2023/10/18 12:53:43;;;;;;;7.30;3.47;;;10.40;99.90;;;;;;5038429;28;20056;-77
2023/10/18 12:58:55;;;;;;;7.57;3.95;;;10.50;99.90;;;;;;5042713;28;20056;-77
2023/10/18 13:01:32;;;;;;;10.63;3.92;;;10.50;99.90;;;;;;5041499;28;20087;-80
2023/10/18 13:03:59;;;;;;;8.57;3.97;;;10.60;99.90;;;;;;5027813;28;20129;-79
2023/10/18 13:06:35;;;;;;;5.03;3.53;;;10.50;99.90;;;;;;5031955;28;20033;-79
2023/10/18 13:16:56;;;;;;;5.28;3.05;;;10.70;99.90;;;;;;5042170;28;20102;-81
2023/10/18 13:19:25;;;;;;;5.47;3.83;;;10.70;99.90;;;;;;5040378;28;20112;-80
2023/10/18 13:21:51;;;;;;;5.13;3.00;;;10.70;99.90;;;;;;5022386;28;20068;-80
2023/10/18 13:24:16;;;;;;;6.57;2.97;;;10.70;99.90;;;;;;5039536;28;20073;-81
2023/10/18 13:26:46;;;;;;;4.95;3.15;;;10.80;99.90;;;;;;5033222;28;20116;-81
2023/10/18 13:31:49;;;;;;;5.32;3.53;;;10.80;99.90;;;;;;5041375;28;20179;-80
2023/10/18 13:34:18;;;;;;;10.10;4.35;;;10.80;99.90;;;;;;5031915;28;20041;-81
2023/10/18 13:36:51;;;;;;;6.57;3.28;;;10.80;99.90;;;;;;5040035;28;20136;-81
2023/10/18 13:39:16;;;;;;;;;;;10.80;99.90;;;;;;5039734;28;20065;-79
2023/10/18 13:41:49;;;;;;;9.68;4.13;;;10.80;99.90;;;;;;5039667;28;20002;-80
2023/10/18 13:44:21;;;;;;;4.78;3.00;;;10.80;99.90;;;;;;5023488;28;20415;-80
2023/10/18 13:46:57;;;;;;;6.57;4.27;;;10.80;99.90;;;;;;5039981;28;20561;-79
2023/10/18 13:49:23;;;;;;;5.75;3.33;;;10.80;99.90;;;;;;5029837;28;20294;-80
2023/10/18 13:51:50;;;;;;;5.80;4.03;;;10.70;99.90;;;;;;5035098;28;20037;-80
2023/10/18 13:54:15;;;;;;;6.10;3.35;;;10.70;99.90;;;;;;5041672;28;20045;-79
2023/10/18 13:56:43;;;;;;;4.97;3.63;;;10.70;99.90;;;;;;5042124;28;20110;-79
2023/10/18 13:59:09;;;;;;;6.75;3.65;;;10.70;99.90;;;;;;5042574;28;20040;-79